createdAt,value
2022-08-10T00:00:34.312Z,55.89
2022-08-10T00:01:35.033Z,55.70
2022-08-10T00:02:34.553Z,55.89
2022-08-10T00:03:34.252Z,55.79
2022-08-10T00:04:34.234Z,55.70
2022-08-10T00:05:43.562Z,55.99
2022-08-10T00:06:34.208Z,56.37
2022-08-10T00:07:34.179Z,55.99
2022-08-10T00:08:34.181Z,55.89
2022-08-10T00:09:34.163Z,55.89
2022-08-10T00:10:34.149Z,56.18
2022-08-10T00:11:34.108Z,55.89
2022-08-10T00:12:53.909Z,56.76
2022-08-10T00:13:34.095Z,56.57
2022-08-10T00:14:34.072Z,56.57
2022-08-10T00:15:52.898Z,56.54
2022-08-10T00:16:34.032Z,56.57
2022-08-10T00:17:34.032Z,56.63
2022-08-10T00:18:36.186Z,56.45
2022-08-10T00:20:02.378Z,56.76
2022-08-10T00:20:33.961Z,56.63
2022-08-10T00:21:33.972Z,56.73
2022-08-10T00:22:34.143Z,56.73
2022-08-10T00:23:34.503Z,56.93
2022-08-10T00:24:33.924Z,56.93
2022-08-10T00:25:33.896Z,56.63
2022-08-10T00:27:52.616Z,56.83
2022-08-10T00:28:00.779Z,56.63
2022-08-10T00:28:33.884Z,56.93
2022-08-10T00:29:33.811Z,57.21
2022-08-10T00:30:33.819Z,57.60
2022-08-10T00:31:33.806Z,57.12
2022-08-10T00:32:34.041Z,57.03
2022-08-10T00:33:33.749Z,56.83
2022-08-10T00:34:33.744Z,57.12
2022-08-10T00:35:33.725Z,57.41
2022-08-10T00:36:33.754Z,57.41
2022-08-10T00:37:33.715Z,57.41
2022-08-10T00:38:33.674Z,57.12
2022-08-10T00:39:35.979Z,57.51
2022-08-10T00:40:37.007Z,57.41
2022-08-10T00:41:33.629Z,57.12
2022-08-10T00:42:33.867Z,57.21
2022-08-10T00:43:33.600Z,57.31
2022-08-10T00:44:33.588Z,57.70
2022-08-10T00:45:33.554Z,57.31
2022-08-10T00:46:33.537Z,57.70
2022-08-10T00:47:36.154Z,57.70
2022-08-10T00:48:33.524Z,57.60
2022-08-10T00:49:33.482Z,57.99
2022-08-10T00:50:33.490Z,57.99
2022-08-10T00:51:44.380Z,57.99
2022-08-10T00:52:33.820Z,57.60
2022-08-10T00:53:33.428Z,57.38
2022-08-10T00:54:33.410Z,57.79
2022-08-10T00:55:33.382Z,57.67
2022-08-10T00:57:12.665Z,57.57
2022-08-10T00:57:33.390Z,57.99
2022-08-10T00:58:33.346Z,58.06
2022-08-10T00:59:33.342Z,57.77
2022-08-10T01:00:33.304Z,57.87
2022-08-10T01:02:08.357Z,57.70
2022-08-10T01:02:33.579Z,57.67
2022-08-10T01:04:36.251Z,57.57
2022-08-10T01:04:58.090Z,58.25
2022-08-10T01:05:33.239Z,57.57
2022-08-10T01:06:33.228Z,58.25
2022-08-10T01:07:33.189Z,57.57
2022-08-10T01:08:33.166Z,57.57
2022-08-10T01:09:33.162Z,57.67
2022-08-10T01:10:33.164Z,57.48
2022-08-10T01:12:28.619Z,57.77
2022-08-10T01:12:39.171Z,58.06
2022-08-10T01:13:33.086Z,57.96
2022-08-10T01:14:33.092Z,57.96
2022-08-10T01:15:33.089Z,57.96
2022-08-10T01:16:33.055Z,57.57
2022-08-10T01:17:49.993Z,58.06
2022-08-10T01:18:37.248Z,57.87
2022-08-10T01:19:33.012Z,58.06
2022-08-10T01:20:33.543Z,57.96
2022-08-10T01:21:32.955Z,57.96
2022-08-10T01:22:33.247Z,57.87
2022-08-10T01:23:32.925Z,57.96
2022-08-10T01:24:33.459Z,57.87
2022-08-10T01:25:32.921Z,57.96
2022-08-10T01:26:32.872Z,58.06
2022-08-10T01:27:32.876Z,57.87
2022-08-10T01:28:32.836Z,57.87
2022-08-10T01:29:33.552Z,57.57
2022-08-10T01:30:32.804Z,57.87
2022-08-10T01:31:32.801Z,57.96
2022-08-10T01:32:33.176Z,57.57
2022-08-10T01:33:58.418Z,57.67
2022-08-10T01:34:32.736Z,57.57
2022-08-10T01:35:32.719Z,58.06
2022-08-10T01:36:32.846Z,57.96
2022-08-10T01:37:32.687Z,57.96
2022-08-10T01:38:32.721Z,57.96
2022-08-10T01:39:32.721Z,58.06
2022-08-10T01:40:32.654Z,58.35
2022-08-10T01:41:45.682Z,57.57
2022-08-10T01:42:33.688Z,57.67
2022-08-10T01:43:32.583Z,57.48
2022-08-10T01:44:32.574Z,57.54
2022-08-10T01:45:44.835Z,57.77
2022-08-10T01:46:32.664Z,57.67
2022-08-10T01:47:32.515Z,57.87
2022-08-10T01:48:32.506Z,58.06
2022-08-10T01:49:32.508Z,58.06
2022-08-10T01:50:32.477Z,58.06
2022-08-10T01:51:33.041Z,58.06
2022-08-10T01:52:32.540Z,57.96
2022-08-10T01:53:40.855Z,57.67
2022-08-10T01:54:32.435Z,57.57
2022-08-10T01:55:32.396Z,57.35
2022-08-10T01:56:32.367Z,57.84
2022-08-10T01:57:32.372Z,57.87
2022-08-10T01:58:32.362Z,57.35
2022-08-10T01:59:32.342Z,57.67
2022-08-10T02:00:32.325Z,57.54
2022-08-10T02:01:32.342Z,57.64
2022-08-10T02:02:32.359Z,57.54
2022-08-10T02:03:32.254Z,57.35
2022-08-10T02:04:33.075Z,57.45
2022-08-10T02:05:32.227Z,57.64
2022-08-10T02:06:32.217Z,57.84
2022-08-10T02:07:32.212Z,57.64
2022-08-10T02:08:32.196Z,57.54
2022-08-10T02:09:32.184Z,58.03
2022-08-10T02:10:32.141Z,58.03
2022-08-10T02:12:06.142Z,58.51
2022-08-10T02:12:32.172Z,58.22
2022-08-10T02:13:32.086Z,58.03
2022-08-10T02:14:32.934Z,58.03
2022-08-10T02:15:32.065Z,58.32
2022-08-10T02:16:32.042Z,58.32
2022-08-10T02:17:59.064Z,58.22
2022-08-10T02:18:32.000Z,58.03
2022-08-10T02:19:32.001Z,58.42
2022-08-10T02:20:31.969Z,58.22
2022-08-10T02:21:31.951Z,57.93
2022-08-10T02:22:37.456Z,58.51
2022-08-10T02:23:31.923Z,58.51
2022-08-10T02:24:31.916Z,58.22
2022-08-10T02:25:40.772Z,58.32
2022-08-10T02:26:31.870Z,58.32
2022-08-10T02:27:31.842Z,58.32
2022-08-10T02:28:31.833Z,58.32
2022-08-10T02:29:31.848Z,58.32
2022-08-10T02:30:31.817Z,58.80
2022-08-10T02:31:31.784Z,58.42
2022-08-10T02:32:38.365Z,58.51
2022-08-10T02:33:31.762Z,58.61
2022-08-10T02:34:31.740Z,58.51
2022-08-10T02:35:54.603Z,58.51
2022-08-10T02:36:31.694Z,58.70
2022-08-10T02:37:31.710Z,58.61
2022-08-10T02:38:58.125Z,58.51
2022-08-10T02:39:31.665Z,58.51
2022-08-10T02:45:02.831Z,58.22
2022-08-10T02:45:11.081Z,58.51
2022-08-10T02:45:19.859Z,58.61
2022-08-10T02:45:24.220Z,58.70
2022-08-10T02:45:29.345Z,58.42
2022-08-10T02:45:32.173Z,58.70
2022-08-10T02:46:31.542Z,58.80
2022-08-10T02:47:46.558Z,58.51
2022-08-10T02:48:31.491Z,58.61
2022-08-10T02:49:31.477Z,58.42
2022-08-10T02:50:31.485Z,58.32
2022-08-10T02:52:07.815Z,58.32
2022-08-10T02:52:31.464Z,58.61
2022-08-10T02:53:55.206Z,58.61
2022-08-10T02:54:31.432Z,58.80
2022-08-10T02:55:32.535Z,58.80
2022-08-10T02:56:32.111Z,58.80
2022-08-10T02:57:31.336Z,58.80
2022-08-10T02:58:31.339Z,58.70
2022-08-10T02:59:39.640Z,58.80
2022-08-10T03:00:32.073Z,59.00
2022-08-10T03:01:31.300Z,58.80
2022-08-10T03:02:31.327Z,59.09
2022-08-10T03:03:31.280Z,58.80
2022-08-10T03:04:54.894Z,59.09
2022-08-10T03:05:31.199Z,58.70
2022-08-10T03:06:31.191Z,58.70
2022-08-10T03:07:42.857Z,59.09
2022-08-10T03:08:31.179Z,58.61
2022-08-10T03:09:32.105Z,58.90
2022-08-10T03:10:31.116Z,59.19
2022-08-10T03:12:35.640Z,59.19
2022-08-10T03:12:37.053Z,59.00
2022-08-10T03:13:31.623Z,58.90
2022-08-10T03:14:31.050Z,58.80
2022-08-10T03:15:31.048Z,58.70
2022-08-10T03:16:33.126Z,59.09
2022-08-10T03:17:31.009Z,59.09
2022-08-10T03:18:30.985Z,59.00
2022-08-10T03:20:33.641Z,59.19
2022-08-10T03:20:36.909Z,59.00
2022-08-10T03:21:30.963Z,59.09
2022-08-10T03:22:32.501Z,59.28
2022-08-10T03:23:30.898Z,59.00
2022-08-10T03:24:33.448Z,59.00
2022-08-10T03:25:30.873Z,58.90
2022-08-10T03:26:31.597Z,58.90
2022-08-10T03:27:30.863Z,59.19
2022-08-10T03:28:30.832Z,59.86
2022-08-10T03:29:30.809Z,58.90
2022-08-10T03:30:33.255Z,59.00
2022-08-10T03:31:30.763Z,59.09
2022-08-10T03:32:30.872Z,59.28
2022-08-10T03:33:30.788Z,59.28
2022-08-10T03:34:33.264Z,59.06
2022-08-10T03:35:30.689Z,59.09
2022-08-10T03:36:43.072Z,58.97
2022-08-10T03:37:30.672Z,59.00
2022-08-10T03:38:30.654Z,59.09
2022-08-10T03:39:31.648Z,59.28
2022-08-10T03:40:45.400Z,59.09
2022-08-10T03:41:30.604Z,59.28
2022-08-10T03:42:30.604Z,59.09
2022-08-10T03:43:30.563Z,59.58
2022-08-10T03:44:30.561Z,59.09
2022-08-10T03:45:30.534Z,59.09
2022-08-10T03:46:30.548Z,59.09
2022-08-10T03:47:30.507Z,59.00
2022-08-10T03:48:48.506Z,59.19
2022-08-10T03:49:30.451Z,59.00
2022-08-10T03:50:51.359Z,59.19
2022-08-10T03:51:30.449Z,59.09
2022-08-10T03:52:31.094Z,58.90
2022-08-10T03:54:05.966Z,59.09
2022-08-10T03:54:30.390Z,59.67
2022-08-10T03:56:30.380Z,59.58
2022-08-10T03:56:32.443Z,59.58
2022-08-10T03:57:30.319Z,59.86
2022-08-10T03:58:30.320Z,59.67
2022-08-10T03:59:30.291Z,60.06
2022-08-10T04:00:30.299Z,59.86
2022-08-10T04:02:46.665Z,60.35
2022-08-10T04:02:47.140Z,60.44
2022-08-10T04:03:30.231Z,60.25
2022-08-10T04:04:30.228Z,60.93
2022-08-10T04:05:37.988Z,60.54
2022-08-10T04:06:30.163Z,61.51
2022-08-10T04:07:30.175Z,61.02
2022-08-10T04:08:30.144Z,60.93
2022-08-10T04:09:53.056Z,61.12
2022-08-10T04:10:30.095Z,61.80
2022-08-10T04:11:30.099Z,61.51
2022-08-10T04:12:30.087Z,61.80
2022-08-10T04:13:30.078Z,62.08
2022-08-10T04:14:38.293Z,61.99
2022-08-10T04:15:30.018Z,62.47
2022-08-10T04:16:30.000Z,62.08
2022-08-10T04:17:57.081Z,62.47
2022-08-10T04:18:30.650Z,62.37
2022-08-10T04:19:29.950Z,62.37
2022-08-10T04:20:34.560Z,62.57
2022-08-10T04:21:29.920Z,63.05
2022-08-10T04:22:29.932Z,62.76
2022-08-10T04:23:29.875Z,63.05
2022-08-10T04:24:33.099Z,63.34
2022-08-10T04:25:29.864Z,63.37
2022-08-10T04:26:29.859Z,63.56
2022-08-10T04:27:29.809Z,63.28
2022-08-10T04:28:29.809Z,63.08
2022-08-10T04:29:29.783Z,63.85
2022-08-10T04:30:29.782Z,63.95
2022-08-10T04:31:30.647Z,64.05
2022-08-10T04:32:29.730Z,64.24
2022-08-10T04:33:29.734Z,63.85
2022-08-10T04:34:29.720Z,63.76
2022-08-10T04:35:29.704Z,64.08
2022-08-10T04:36:29.660Z,64.08
2022-08-10T04:37:29.658Z,64.27
2022-08-10T04:38:29.633Z,64.56
2022-08-10T04:39:29.732Z,64.47
2022-08-10T04:40:31.033Z,64.37
2022-08-10T04:41:29.582Z,64.31
2022-08-10T04:42:30.593Z,64.50
2022-08-10T04:43:29.558Z,64.89
2022-08-10T04:44:30.119Z,65.08
2022-08-10T04:45:47.268Z,64.89
2022-08-10T04:46:55.840Z,65.17
2022-08-10T04:47:51.233Z,65.08
2022-08-10T04:48:42.118Z,65.75
2022-08-10T04:49:56.557Z,65.30
2022-08-10T04:50:29.437Z,65.79
2022-08-10T04:51:29.429Z,65.88
2022-08-10T04:52:29.423Z,66.20
2022-08-10T04:53:30.162Z,66.02
2022-08-10T04:54:29.873Z,66.50
2022-08-10T04:55:29.361Z,66.11
2022-08-10T04:56:31.788Z,66.14
2022-08-10T04:57:29.355Z,66.72
2022-08-10T04:58:29.299Z,66.63
2022-08-10T04:59:29.293Z,66.43
2022-08-10T05:00:29.351Z,66.66
2022-08-10T05:02:21.349Z,66.47
2022-08-10T05:02:32.204Z,66.66
2022-08-10T05:03:29.227Z,66.50
2022-08-10T05:04:36.278Z,66.69
2022-08-10T05:05:29.226Z,66.50
2022-08-10T05:06:29.201Z,66.60
2022-08-10T05:07:29.233Z,66.24
2022-08-10T05:08:29.158Z,66.34
2022-08-10T05:09:29.161Z,66.47
2022-08-10T05:10:29.153Z,66.08
2022-08-10T05:11:29.124Z,65.89
2022-08-10T05:12:29.088Z,66.40
2022-08-10T05:13:29.080Z,66.02
2022-08-10T05:14:29.084Z,65.43
2022-08-10T05:15:29.058Z,65.85
2022-08-10T05:16:32.366Z,65.47
2022-08-10T05:17:29.020Z,65.17
2022-08-10T05:18:29.015Z,65.30
2022-08-10T05:20:03.306Z,65.20
2022-08-10T05:20:29.002Z,65.40
2022-08-10T05:21:53.796Z,64.56
2022-08-10T05:22:28.945Z,64.46
2022-08-10T05:23:28.949Z,64.56
2022-08-10T05:24:28.937Z,64.69
2022-08-10T05:25:28.910Z,64.59
2022-08-10T05:26:29.663Z,64.20
2022-08-10T05:27:28.893Z,63.71
2022-08-10T05:28:30.710Z,63.45
2022-08-10T05:29:28.873Z,63.45
2022-08-10T05:30:28.867Z,62.77
2022-08-10T05:31:28.893Z,62.99
2022-08-10T05:32:28.811Z,63.09
2022-08-10T05:33:28.811Z,62.99
2022-08-10T05:34:28.789Z,62.51
2022-08-10T05:35:28.811Z,62.54
2022-08-10T05:36:28.851Z,62.83
2022-08-10T05:38:10.781Z,62.05
2022-08-10T05:38:28.745Z,61.76
2022-08-10T05:39:30.404Z,61.60
2022-08-10T05:40:28.731Z,61.50
2022-08-10T05:41:28.698Z,61.50
2022-08-10T05:42:28.679Z,61.30
2022-08-10T05:43:28.679Z,60.52
2022-08-10T05:44:28.670Z,60.55
2022-08-10T05:45:28.667Z,60.36
2022-08-10T05:46:28.665Z,60.36
2022-08-10T05:47:28.670Z,59.97
2022-08-10T05:48:57.174Z,60.39
2022-08-10T05:49:28.622Z,60.29
2022-08-10T05:50:28.608Z,59.90
2022-08-10T05:51:28.606Z,59.25
2022-08-10T05:52:29.154Z,59.15
2022-08-10T05:54:01.836Z,59.34
2022-08-10T05:54:28.542Z,59.08
2022-08-10T05:55:28.535Z,58.50
2022-08-10T05:56:57.071Z,58.69
2022-08-10T05:57:29.162Z,58.20
2022-08-10T05:58:28.536Z,58.03
2022-08-10T06:00:33.444Z,58.23
2022-08-10T06:00:36.728Z,57.15
2022-08-10T06:01:28.472Z,57.25
2022-08-10T06:02:31.394Z,57.38
2022-08-10T06:03:29.208Z,57.57
2022-08-10T06:04:28.411Z,57.18
2022-08-10T06:05:28.413Z,57.28
2022-08-10T06:06:28.403Z,56.72
2022-08-10T06:07:28.540Z,56.33
2022-08-10T06:08:28.393Z,56.04
2022-08-10T06:09:28.355Z,56.13
2022-08-10T06:10:32.702Z,55.65
2022-08-10T06:12:26.405Z,55.47
2022-08-10T06:12:36.394Z,55.38
2022-08-10T06:13:30.506Z,55.38
2022-08-10T06:14:29.254Z,55.28
2022-08-10T06:15:51.426Z,54.89
2022-08-10T06:16:28.286Z,54.79
2022-08-10T06:17:28.267Z,54.79
2022-08-10T06:18:28.270Z,54.43
2022-08-10T06:19:28.275Z,54.33
2022-08-10T06:20:30.686Z,53.64
2022-08-10T06:21:28.219Z,53.94
2022-08-10T06:22:28.215Z,53.45
2022-08-10T06:23:28.199Z,53.55
2022-08-10T06:24:29.228Z,53.25
2022-08-10T06:26:08.385Z,53.18
2022-08-10T06:26:28.158Z,52.98
2022-08-10T06:27:34.444Z,53.18
2022-08-10T06:28:28.165Z,52.69
2022-08-10T06:29:28.159Z,52.50
2022-08-10T06:30:28.138Z,52.40
2022-08-10T06:31:30.715Z,52.89
2022-08-10T06:32:28.092Z,52.40
2022-08-10T06:33:28.109Z,52.10
2022-08-10T06:34:28.093Z,52.00
2022-08-10T06:35:28.084Z,52.50
2022-08-10T06:36:28.071Z,52.10
2022-08-10T06:37:28.712Z,52.00
2022-08-10T06:38:28.030Z,52.30
2022-08-10T06:39:36.095Z,52.33
2022-08-10T06:40:28.095Z,52.52
2022-08-10T06:41:58.018Z,52.33
2022-08-10T06:42:28.052Z,52.52
2022-08-10T06:43:28.025Z,52.03
2022-08-10T06:44:27.964Z,51.15
2022-08-10T06:45:27.971Z,51.07
2022-08-10T06:46:27.949Z,50.59
2022-08-10T06:47:27.957Z,49.90
2022-08-10T06:48:27.934Z,49.90
2022-08-10T06:49:27.909Z,49.51
2022-08-10T06:50:34.951Z,49.51
2022-08-10T06:51:27.895Z,49.80
2022-08-10T06:52:27.893Z,49.63
2022-08-10T06:53:53.401Z,49.31
2022-08-10T06:54:27.900Z,49.14
2022-08-10T06:55:40.151Z,49.63
2022-08-10T06:56:37.490Z,49.63
2022-08-10T06:57:27.835Z,49.53
2022-08-10T06:58:27.832Z,49.73
2022-08-10T06:59:27.842Z,49.33
2022-08-10T07:00:34.025Z,48.96
2022-08-10T07:01:27.954Z,48.77
2022-08-10T07:02:27.854Z,49.07
2022-08-10T07:03:27.885Z,48.67
2022-08-10T07:04:33.281Z,49.07
2022-08-10T07:05:27.759Z,48.96
2022-08-10T07:06:27.736Z,48.08
2022-08-10T07:07:27.908Z,48.18
2022-08-10T07:08:27.715Z,48.47
2022-08-10T07:09:27.726Z,48.38
2022-08-10T07:10:41.281Z,48.50
2022-08-10T07:11:28.035Z,48.57
2022-08-10T07:12:27.754Z,48.69
2022-08-10T07:14:16.247Z,48.30
2022-08-10T07:14:27.688Z,47.81
2022-08-10T07:15:57.313Z,47.81
2022-08-10T07:16:27.676Z,47.91
2022-08-10T07:17:27.667Z,47.61
2022-08-10T07:18:27.671Z,47.22
2022-08-10T07:19:27.609Z,47.03
2022-08-10T07:20:27.596Z,47.13
2022-08-10T07:21:27.585Z,47.44
2022-08-10T07:23:01.467Z,47.34
2022-08-10T07:23:59.499Z,47.15
2022-08-10T07:24:27.550Z,47.25
2022-08-10T07:25:27.564Z,46.97
2022-08-10T07:26:27.532Z,47.05
2022-08-10T07:27:28.142Z,46.28
2022-08-10T07:28:27.529Z,46.48
2022-08-10T07:29:53.299Z,46.68
2022-08-10T07:30:27.566Z,46.58
2022-08-10T07:31:34.021Z,46.11
2022-08-10T07:32:27.573Z,46.21
2022-08-10T07:33:27.479Z,46.31
2022-08-10T07:34:29.131Z,46.21
2022-08-10T07:35:31.908Z,45.92
2022-08-10T07:36:27.476Z,45.92
2022-08-10T07:37:27.501Z,45.52
2022-08-10T07:38:27.420Z,46.01
2022-08-10T07:40:02.305Z,45.35
2022-08-10T07:40:27.445Z,44.56
2022-08-10T07:41:27.401Z,44.36
2022-08-10T07:42:27.470Z,44.17
2022-08-10T07:43:27.377Z,44.17
2022-08-10T07:44:27.359Z,44.66
2022-08-10T07:45:27.358Z,44.66
2022-08-10T07:46:27.349Z,44.66
2022-08-10T07:47:53.163Z,44.46
2022-08-10T07:48:27.337Z,44.66
2022-08-10T07:49:27.353Z,44.66
2022-08-10T07:50:33.103Z,44.56
2022-08-10T07:51:27.299Z,44.26
2022-08-10T07:52:27.304Z,44.07
2022-08-10T07:53:27.292Z,44.56
2022-08-10T07:54:27.283Z,44.07
2022-08-10T07:56:05.544Z,44.17
2022-08-10T07:56:48.055Z,43.97
2022-08-10T07:57:31.887Z,43.60
2022-08-10T07:58:27.246Z,43.68
2022-08-10T07:59:27.233Z,43.48
2022-08-10T08:00:27.219Z,43.77
2022-08-10T08:01:27.318Z,43.10
2022-08-10T08:02:27.329Z,42.99
2022-08-10T08:03:27.199Z,43.18
2022-08-10T08:04:27.195Z,43.18
2022-08-10T08:05:40.760Z,42.99
2022-08-10T08:06:27.178Z,43.48
2022-08-10T08:07:27.176Z,43.08
2022-08-10T08:08:28.306Z,43.38
2022-08-10T08:09:27.754Z,43.68
2022-08-10T08:10:27.130Z,42.99
2022-08-10T08:11:27.113Z,42.61
2022-08-10T08:12:27.181Z,42.41
2022-08-10T08:13:27.118Z,42.40
2022-08-10T08:14:27.091Z,42.89
2022-08-10T08:16:19.849Z,42.81
2022-08-10T08:16:27.064Z,42.91
2022-08-10T08:17:35.586Z,43.01
2022-08-10T08:18:27.053Z,43.20
2022-08-10T08:19:31.252Z,42.81
2022-08-10T08:20:28.738Z,43.10
2022-08-10T08:24:09.205Z,43.01
2022-08-10T08:24:10.319Z,43.01
2022-08-10T08:24:14.598Z,43.10
2022-08-10T08:24:31.301Z,43.70
2022-08-10T08:25:26.999Z,43.50
2022-08-10T08:26:26.993Z,43.50
2022-08-10T08:27:27.008Z,43.62
2022-08-10T08:28:27.752Z,43.62
2022-08-10T08:29:26.945Z,43.03
2022-08-10T08:30:27.857Z,42.83
2022-08-10T08:31:27.756Z,42.34
2022-08-10T08:32:27.000Z,42.44
2022-08-10T08:33:41.995Z,42.54
2022-08-10T08:34:26.901Z,42.44
2022-08-10T08:35:27.798Z,42.83
2022-08-10T08:36:26.886Z,42.83
2022-08-10T08:38:32.977Z,42.34
2022-08-10T08:38:33.739Z,42.73
2022-08-10T08:39:27.030Z,42.34
2022-08-10T08:40:26.893Z,42.73
2022-08-10T08:41:26.848Z,42.61
2022-08-10T08:42:26.921Z,42.34
2022-08-10T08:43:31.240Z,42.93
2022-08-10T08:44:29.518Z,42.93
2022-08-10T08:45:27.765Z,42.52
2022-08-10T08:46:26.828Z,42.54
2022-08-10T08:48:02.262Z,42.63
2022-08-10T08:48:26.788Z,42.73
2022-08-10T08:49:41.442Z,43.23
2022-08-10T08:50:26.757Z,42.83
2022-08-10T08:52:06.132Z,42.73
2022-08-10T08:52:26.772Z,42.54
2022-08-10T08:54:02.106Z,42.83
2022-08-10T08:54:26.728Z,42.83
2022-08-10T08:56:04.991Z,42.44
2022-08-10T08:56:26.717Z,42.54
2022-08-10T08:57:50.024Z,42.44
2022-08-10T08:58:26.707Z,42.46
2022-08-10T08:59:26.705Z,42.36
2022-08-10T09:00:26.667Z,42.55
2022-08-10T09:01:40.555Z,42.65
2022-08-10T09:02:26.657Z,42.65
2022-08-10T09:03:28.326Z,42.76
2022-08-10T09:04:26.651Z,42.76
2022-08-10T09:05:26.644Z,42.36
2022-08-10T09:06:26.653Z,41.47
2022-08-10T09:07:59.758Z,41.38
2022-08-10T09:08:26.597Z,41.78
2022-08-10T09:09:26.602Z,41.57
2022-08-10T09:10:27.289Z,41.49
2022-08-10T09:11:26.590Z,41.47
2022-08-10T09:12:26.651Z,41.57
2022-08-10T09:13:26.603Z,41.47
2022-08-10T09:14:27.320Z,42.16
2022-08-10T09:15:40.224Z,41.99
2022-08-10T09:16:26.527Z,42.18
2022-08-10T09:17:26.532Z,42.16
2022-08-10T09:18:26.519Z,42.18
2022-08-10T09:19:34.965Z,41.77
2022-08-10T09:20:26.495Z,41.47
2022-08-10T09:21:26.537Z,41.78
2022-08-10T09:22:26.482Z,41.49
2022-08-10T09:24:01.418Z,41.39
2022-08-10T09:24:26.466Z,41.39
2022-08-10T09:25:26.479Z,41.49
2022-08-10T09:26:26.472Z,41.39
2022-08-10T09:27:26.441Z,41.20
2022-08-10T09:28:26.988Z,41.49
2022-08-10T09:29:26.499Z,41.78
2022-08-10T09:30:31.135Z,41.59
2022-08-10T09:31:26.422Z,42.18
2022-08-10T09:36:14.298Z,42.20
2022-08-10T09:36:20.690Z,42.20
2022-08-10T09:36:25.987Z,41.91
2022-08-10T09:36:28.203Z,41.71
2022-08-10T09:36:33.185Z,42.20
2022-08-10T09:37:42.654Z,42.10
2022-08-10T09:38:26.372Z,41.91
2022-08-10T09:40:12.284Z,42.40
2022-08-10T09:41:00.304Z,42.10
2022-08-10T09:41:26.411Z,42.10
2022-08-10T09:42:26.381Z,42.00
2022-08-10T09:43:27.235Z,42.40
2022-08-10T09:44:26.295Z,42.30
2022-08-10T09:45:26.296Z,42.20
2022-08-10T09:46:27.688Z,41.99
2022-08-10T09:48:00.814Z,42.18
2022-08-10T09:48:26.275Z,41.91
2022-08-10T09:49:53.489Z,42.18
2022-08-10T09:50:26.243Z,42.08
2022-08-10T09:51:44.696Z,42.47
2022-08-10T09:52:26.253Z,42.38
2022-08-10T09:53:26.208Z,42.60
2022-08-10T09:54:26.817Z,42.40
2022-08-10T09:56:18.078Z,42.38
2022-08-10T09:56:28.820Z,42.50
2022-08-10T09:57:54.815Z,42.50
2022-08-10T09:58:26.192Z,42.99
2022-08-10T09:59:29.178Z,42.69
2022-08-10T10:00:26.201Z,42.72
2022-08-10T10:02:03.835Z,42.72
2022-08-10T10:02:26.157Z,42.61
2022-08-10T10:03:26.362Z,42.52
2022-08-10T10:04:26.128Z,42.82
2022-08-10T10:05:26.212Z,42.79
2022-08-10T10:06:26.138Z,43.01
2022-08-10T10:07:26.099Z,42.99
2022-08-10T10:08:26.083Z,42.60
2022-08-10T10:09:26.832Z,42.60
2022-08-10T10:10:26.072Z,42.69
2022-08-10T10:11:26.062Z,43.29
2022-08-10T10:12:26.079Z,43.19
2022-08-10T10:13:50.637Z,43.19
2022-08-10T10:14:26.821Z,43.48
2022-08-10T10:15:26.203Z,43.19
2022-08-10T10:16:26.017Z,42.99
2022-08-10T10:17:26.020Z,43.88
2022-08-10T10:18:26.009Z,43.29
2022-08-10T10:19:26.107Z,43.78
2022-08-10T10:20:25.989Z,43.68
2022-08-10T10:21:54.390Z,43.78
2022-08-10T10:22:26.001Z,43.78
2022-08-10T10:23:25.957Z,43.70
2022-08-10T10:24:25.962Z,43.80
2022-08-10T10:25:51.418Z,43.51
2022-08-10T10:26:25.968Z,43.68
2022-08-10T10:27:25.927Z,43.90
2022-08-10T10:28:38.953Z,43.70
2022-08-10T10:29:57.091Z,43.70
2022-08-10T10:30:25.903Z,43.90
2022-08-10T10:31:25.958Z,43.90
2022-08-10T10:32:26.854Z,43.51
2022-08-10T10:33:25.929Z,43.90
2022-08-10T10:34:26.871Z,43.60
2022-08-10T10:35:25.859Z,43.60
2022-08-10T10:36:26.859Z,43.51
2022-08-10T10:38:02.934Z,43.31
2022-08-10T10:38:25.859Z,43.31
2022-08-10T10:39:25.927Z,43.21
2022-08-10T10:40:26.359Z,43.51
2022-08-10T10:41:26.365Z,42.72
2022-08-10T10:42:44.451Z,42.93
2022-08-10T10:43:25.789Z,42.74
2022-08-10T10:44:25.795Z,42.74
2022-08-10T10:45:25.793Z,43.13
2022-08-10T10:46:25.808Z,43.03
2022-08-10T10:47:25.756Z,42.93
2022-08-10T10:48:29.053Z,42.44
2022-08-10T10:49:25.752Z,42.93
2022-08-10T10:50:26.352Z,42.93
2022-08-10T10:51:25.744Z,43.23
2022-08-10T10:52:25.726Z,43.33
2022-08-10T10:53:25.755Z,42.93
2022-08-10T10:54:25.703Z,42.83
2022-08-10T10:55:26.359Z,42.85
2022-08-10T10:56:25.688Z,42.56
2022-08-10T10:57:59.935Z,42.96
2022-08-10T10:58:28.479Z,42.66
2022-08-10T10:59:55.448Z,42.64
2022-08-10T11:00:25.684Z,42.34
2022-08-10T11:01:25.688Z,41.97
2022-08-10T11:02:25.657Z,42.16
2022-08-10T11:03:25.632Z,42.66
2022-08-10T11:04:25.631Z,42.46
2022-08-10T11:05:25.628Z,42.66
2022-08-10T11:06:39.466Z,42.56
2022-08-10T11:07:30.987Z,43.15
2022-08-10T11:08:28.622Z,43.05
2022-08-10T11:10:04.618Z,42.66
2022-08-10T11:10:33.107Z,42.78
2022-08-10T11:12:01.873Z,43.07
2022-08-10T11:12:26.186Z,42.58
2022-08-10T11:14:27.100Z,42.58
2022-08-10T11:14:29.099Z,42.68
2022-08-10T11:15:25.555Z,42.19
2022-08-10T11:16:25.542Z,42.08
2022-08-10T11:17:25.522Z,42.58
2022-08-10T11:18:25.528Z,42.58
2022-08-10T11:19:25.515Z,41.79
2022-08-10T11:20:26.325Z,42.19
2022-08-10T11:21:25.523Z,42.08
2022-08-10T11:22:25.481Z,42.19
2022-08-10T11:23:25.528Z,42.29
2022-08-10T11:24:46.778Z,42.29
2022-08-10T11:25:25.458Z,42.19
2022-08-10T11:26:26.382Z,42.58
2022-08-10T11:27:25.465Z,42.48
2022-08-10T11:28:25.468Z,42.66
2022-08-10T11:29:25.463Z,42.66
2022-08-10T11:30:25.493Z,42.07
2022-08-10T11:31:25.468Z,42.36
2022-08-10T11:32:25.404Z,42.07
2022-08-10T11:33:32.422Z,42.54
2022-08-10T11:34:47.426Z,43.03
2022-08-10T11:35:25.470Z,42.83
2022-08-10T11:36:25.887Z,42.83
2022-08-10T11:37:25.381Z,42.54
2022-08-10T11:38:31.263Z,42.24
2022-08-10T11:39:25.465Z,42.64
2022-08-10T11:40:25.352Z,42.74
2022-08-10T11:42:10.292Z,43.03
2022-08-10T11:42:33.408Z,42.74
2022-08-10T11:43:25.354Z,42.54
2022-08-10T11:44:25.306Z,42.54
2022-08-10T11:45:25.299Z,43.03
2022-08-10T11:46:28.769Z,42.74
2022-08-10T11:47:25.349Z,42.74
2022-08-10T11:48:54.836Z,42.93
2022-08-10T11:49:25.299Z,42.93
2022-08-10T11:50:25.911Z,42.83
2022-08-10T11:51:25.265Z,43.03
2022-08-10T11:52:25.320Z,42.24
2022-08-10T11:53:25.238Z,42.24
2022-08-10T11:54:25.228Z,42.24
2022-08-10T11:55:25.239Z,41.85
2022-08-10T11:56:25.236Z,42.44
2022-08-10T11:57:25.246Z,42.34
2022-08-10T11:58:25.215Z,41.75
2022-08-10T11:59:25.184Z,41.75
2022-08-10T12:00:25.185Z,42.05
2022-08-10T12:01:25.173Z,41.93
2022-08-10T12:02:25.258Z,42.05
2022-08-10T12:03:25.183Z,42.54
2022-08-10T12:04:25.920Z,42.05
2022-08-10T12:05:54.448Z,42.05
2022-08-10T12:06:53.587Z,42.14
2022-08-10T12:10:07.220Z,42.24
2022-08-10T12:10:07.642Z,42.05
2022-08-10T12:10:09.636Z,42.05
2022-08-10T12:10:25.092Z,42.24
2022-08-10T12:11:25.948Z,42.24
2022-08-10T12:12:25.089Z,42.24
2022-08-10T12:13:25.071Z,42.34
2022-08-10T12:14:25.073Z,42.34
2022-08-10T12:15:25.089Z,41.75
2022-08-10T12:16:25.072Z,41.63
2022-08-10T12:17:25.039Z,41.24
2022-08-10T12:18:25.046Z,41.43
2022-08-10T12:19:25.020Z,41.73
2022-08-10T12:20:25.011Z,41.73
2022-08-10T12:21:25.020Z,41.63
2022-08-10T12:22:25.023Z,41.63
2022-08-10T12:23:25.011Z,42.52
2022-08-10T12:24:24.986Z,42.02
2022-08-10T12:25:57.466Z,42.02
2022-08-10T12:26:24.963Z,42.42
2022-08-10T12:27:25.031Z,42.42
2022-08-10T12:28:49.237Z,42.02
2022-08-10T12:29:25.572Z,42.02
2022-08-10T12:30:24.965Z,42.32
2022-08-10T12:31:25.919Z,42.32
2022-08-10T12:32:25.716Z,42.13
2022-08-10T12:33:24.902Z,41.63
2022-08-10T12:34:24.905Z,41.93
2022-08-10T12:35:26.155Z,42.22
2022-08-10T12:36:24.913Z,42.02
2022-08-10T12:37:24.868Z,41.83
2022-08-10T12:38:25.423Z,41.83
2022-08-10T12:39:24.901Z,41.63
2022-08-10T12:40:35.167Z,41.73
2022-08-10T12:41:43.387Z,42.42
2022-08-10T12:43:13.122Z,41.63
2022-08-10T12:44:06.788Z,41.53
2022-08-10T12:44:24.814Z,41.43
2022-08-10T12:45:24.861Z,41.43
2022-08-10T12:46:24.794Z,41.41
2022-08-10T12:47:24.788Z,41.33
2022-08-10T12:48:24.799Z,41.04
2022-08-10T12:49:24.798Z,41.02
2022-08-10T12:50:30.968Z,41.22
2022-08-10T12:51:24.775Z,41.12
2022-08-10T12:52:24.805Z,41.12